Airport details for: LFPO (France)

Metar

LFPO 170130Z 00000KT CAVOK 14/12 Q1022 NOSIG

General details

ICAO: LFPO
IATA: ORY
Name (city): Orly
Major:
Country: France
vACC: vACC France
Description:
Scenery links:
FS9 scenery:
FSX/P3D scenery:
XP scenery:
Elevation: 291 ft.
Transition altitude: 5000 ft.
MSA: 11900 ft.
Latitude: 48.723333
Longitude: 2.379445
LFPO Charts
LFPO Notams
LFPO Online stations

Runways

Number Course Length Elevation Lat Lon ILS ILS freq ILS FAC GP
02 19° 7874ft / 2400 m 287ft 48.717542 2.376697 110.3 19° 3.0°
06 63° 11975ft / 3650 m 283ft 48.72125 2.32052 108.5 63° 3.0°
08 75° 10892ft / 3320 m 277ft 48.719408 2.358592 108.15 75° 0.0°
20 199° 7874ft / 2400 m 287ft 48.738022 2.38697 - - 3.0°
24 243° 11975ft / 3650 m 285ft 48.735456 2.360678 110.9 243° 3.2°
26 255° 10892ft / 3320 m 287ft 48.726383 2.396392 111.75 255° 3.0°